sensor_id;sensor_type;location;lat;lon;timestamp;P1;durP1;ratioP1;P2;durP2;ratioP2
62679;SDS011;48746;55.578;37.902;2022-07-23T00:03:53;18.73;;;6.75;;
62679;SDS011;48746;55.578;37.902;2022-07-23T00:06:20;11.20;;;6.30;;
62679;SDS011;48746;55.578;37.902;2022-07-23T00:08:50;14.63;;;6.68;;
62679;SDS011;48746;55.578;37.902;2022-07-23T00:11:17;10.48;;;6.60;;
62679;SDS011;48746;55.578;37.902;2022-07-23T00:13:43;12.82;;;6.80;;
62679;SDS011;48746;55.578;37.902;2022-07-23T00:16:10;15.32;;;7.15;;
62679;SDS011;48746;55.578;37.902;2022-07-23T00:18:36;16.08;;;6.95;;
62679;SDS011;48746;55.578;37.902;2022-07-23T00:21:03;15.13;;;7.03;;
62679;SDS011;48746;55.578;37.902;2022-07-23T00:23:29;11.90;;;6.35;;
62679;SDS011;48746;55.578;37.902;2022-07-23T00:25:56;14.38;;;6.55;;
62679;SDS011;48746;55.578;37.902;2022-07-23T00:28:22;12.43;;;6.90;;
62679;SDS011;48746;55.578;37.902;2022-07-23T00:30:48;14.60;;;6.70;;
62679;SDS011;48746;55.578;37.902;2022-07-23T00:33:14;12.77;;;6.63;;
62679;SDS011;48746;55.578;37.902;2022-07-23T00:35:40;17.85;;;6.47;;
62679;SDS011;48746;55.578;37.902;2022-07-23T00:38:07;15.10;;;7.15;;
62679;SDS011;48746;55.578;37.902;2022-07-23T00:40:38;12.95;;;7.05;;
62679;SDS011;48746;55.578;37.902;2022-07-23T00:43:05;13.82;;;6.53;;
62679;SDS011;48746;55.578;37.902;2022-07-23T00:45:31;12.82;;;6.95;;
62679;SDS011;48746;55.578;37.902;2022-07-23T00:47:57;14.15;;;6.78;;
62679;SDS011;48746;55.578;37.902;2022-07-23T00:50:24;14.18;;;6.70;;
62679;SDS011;48746;55.578;37.902;2022-07-23T00:52:50;15.40;;;7.13;;
62679;SDS011;48746;55.578;37.902;2022-07-23T00:55:18;10.43;;;6.43;;
62679;SDS011;48746;55.578;37.902;2022-07-23T00:57:44;10.55;;;6.40;;
62679;SDS011;48746;55.578;37.902;2022-07-23T01:00:12;21.73;;;6.80;;
62679;SDS011;48746;55.578;37.902;2022-07-23T01:02:40;20.63;;;7.25;;
62679;SDS011;48746;55.578;37.902;2022-07-23T01:05:06;20.98;;;6.88;;
62679;SDS011;48746;55.578;37.902;2022-07-23T01:07:33;24.90;;;7.78;;
62679;SDS011;48746;55.578;37.902;2022-07-23T01:13:08;23.27;;;7.03;;
62679;SDS011;48746;55.578;37.902;2022-07-23T01:15:36;11.25;;;6.43;;
62679;SDS011;48746;55.578;37.902;2022-07-23T01:18:04;19.90;;;7.03;;
62679;SDS011;48746;55.578;37.902;2022-07-23T01:20:32;15.90;;;7.32;;
62679;SDS011;48746;55.578;37.902;2022-07-23T01:23:01;14.63;;;6.97;;
62679;SDS011;48746;55.578;37.902;2022-07-23T01:25:27;17.08;;;7.18;;
62679;SDS011;48746;55.578;37.902;2022-07-23T01:27:57;14.30;;;7.33;;
62679;SDS011;48746;55.578;37.902;2022-07-23T01:30:23;18.00;;;7.40;;
62679;SDS011;48746;55.578;37.902;2022-07-23T01:32:49;12.65;;;6.88;;
62679;SDS011;48746;55.578;37.902;2022-07-23T01:35:16;16.23;;;6.93;;
62679;SDS011;48746;55.578;37.902;2022-07-23T01:37:42;15.88;;;6.82;;
62679;SDS011;48746;55.578;37.902;2022-07-23T01:40:12;12.30;;;6.70;;
62679;SDS011;48746;55.578;37.902;2022-07-23T01:42:38;19.70;;;7.30;;
62679;SDS011;48746;55.578;37.902;2022-07-23T01:45:07;18.42;;;6.82;;
62679;SDS011;48746;55.578;37.902;2022-07-23T01:47:33;15.65;;;7.70;;
62679;SDS011;48746;55.578;37.902;2022-07-23T01:50:03;13.45;;;7.70;;
62679;SDS011;48746;55.578;37.902;2022-07-23T01:52:59;18.85;;;7.22;;
62679;SDS011;48746;55.578;37.902;2022-07-23T01:55:26;19.67;;;6.82;;
62679;SDS011;48746;55.578;37.902;2022-07-23T01:57:52;14.38;;;6.68;;
62679;SDS011;48746;55.578;37.902;2022-07-23T02:00:21;20.48;;;6.43;;
62679;SDS011;48746;55.578;37.902;2022-07-23T02:02:50;14.95;;;6.28;;
62679;SDS011;48746;55.578;37.902;2022-07-23T02:05:16;12.13;;;6.40;;
62679;SDS011;48746;55.578;37.902;2022-07-23T02:07:44;18.05;;;6.38;;
62679;SDS011;48746;55.578;37.902;2022-07-23T02:10:13;13.77;;;6.00;;
62679;SDS011;48746;55.578;37.902;2022-07-23T02:12:39;17.50;;;6.40;;
62679;SDS011;48746;55.578;37.902;2022-07-23T02:15:28;12.63;;;5.88;;
62679;SDS011;48746;55.578;37.902;2022-07-23T02:17:55;11.50;;;5.72;;
62679;SDS011;48746;55.578;37.902;2022-07-23T02:20:21;10.82;;;6.05;;
62679;SDS011;48746;55.578;37.902;2022-07-23T02:22:48;15.52;;;5.85;;
62679;SDS011;48746;55.578;37.902;2022-07-23T02:25:15;15.98;;;6.05;;
62679;SDS011;48746;55.578;37.902;2022-07-23T02:27:42;13.70;;;5.93;;
62679;SDS011;48746;55.578;37.902;2022-07-23T02:30:09;8.88;;;6.07;;
62679;SDS011;48746;55.578;37.902;2022-07-23T02:32:35;12.77;;;5.68;;
62679;SDS011;48746;55.578;37.902;2022-07-23T02:35:02;10.02;;;5.95;;
62679;SDS011;48746;55.578;37.902;2022-07-23T02:37:30;15.88;;;6.30;;
62679;SDS011;48746;55.578;37.902;2022-07-23T02:40:00;25.00;;;6.60;;
62679;SDS011;48746;55.578;37.902;2022-07-23T02:42:26;13.35;;;6.25;;
62679;SDS011;48746;55.578;37.902;2022-07-23T02:44:53;12.85;;;6.20;;
62679;SDS011;48746;55.578;37.902;2022-07-23T02:47:19;18.85;;;6.78;;
62679;SDS011;48746;55.578;37.902;2022-07-23T02:49:49;14.70;;;6.75;;
62679;SDS011;48746;55.578;37.902;2022-07-23T02:52:15;20.73;;;6.40;;
62679;SDS011;48746;55.578;37.902;2022-07-23T02:54:42;10.35;;;6.07;;
62679;SDS011;48746;55.578;37.902;2022-07-23T02:57:10;13.70;;;7.22;;
62679;SDS011;48746;55.578;37.902;2022-07-23T02:59:36;15.57;;;7.00;;
62679;SDS011;48746;55.578;37.902;2022-07-23T03:02:02;13.82;;;6.43;;
62679;SDS011;48746;55.578;37.902;2022-07-23T03:04:29;19.15;;;7.10;;
62679;SDS011;48746;55.578;37.902;2022-07-23T03:06:55;18.80;;;7.68;;
62679;SDS011;48746;55.578;37.902;2022-07-23T03:09:26;24.65;;;6.57;;
62679;SDS011;48746;55.578;37.902;2022-07-23T03:11:52;8.93;;;6.43;;
62679;SDS011;48746;55.578;37.902;2022-07-23T03:14:19;18.73;;;7.20;;
62679;SDS011;48746;55.578;37.902;2022-07-23T03:16:45;15.30;;;7.30;;
62679;SDS011;48746;55.578;37.902;2022-07-23T03:19:15;11.65;;;7.00;;
62679;SDS011;48746;55.578;37.902;2022-07-23T03:21:41;10.55;;;6.97;;
62679;SDS011;48746;55.578;37.902;2022-07-23T03:24:08;17.05;;;7.95;;
62679;SDS011;48746;55.578;37.902;2022-07-23T03:26:35;16.27;;;7.13;;
62679;SDS011;48746;55.578;37.902;2022-07-23T03:29:04;18.05;;;7.10;;
62679;SDS011;48746;55.578;37.902;2022-07-23T03:31:31;14.15;;;7.88;;
62679;SDS011;48746;55.578;37.902;2022-07-23T03:33:57;16.92;;;7.13;;
62679;SDS011;48746;55.578;37.902;2022-07-23T03:36:24;19.13;;;7.35;;
62679;SDS011;48746;55.578;37.902;2022-07-23T03:38:55;19.75;;;7.40;;
62679;SDS011;48746;55.578;37.902;2022-07-23T03:41:21;11.83;;;6.97;;
62679;SDS011;48746;55.578;37.902;2022-07-23T03:43:47;24.02;;;8.30;;
62679;SDS011;48746;55.578;37.902;2022-07-23T03:46:13;17.75;;;8.35;;
62679;SDS011;48746;55.578;37.902;2022-07-23T03:48:42;19.33;;;7.65;;
62679;SDS011;48746;55.578;37.902;2022-07-23T03:51:08;16.73;;;7.33;;
62679;SDS011;48746;55.578;37.902;2022-07-23T03:53:37;13.70;;;7.18;;
62679;SDS011;48746;55.578;37.902;2022-07-23T03:56:03;19.33;;;7.45;;
62679;SDS011;48746;55.578;37.902;2022-07-23T03:58:30;20.38;;;7.65;;
62679;SDS011;48746;55.578;37.902;2022-07-23T04:00:56;17.50;;;7.75;;
62679;SDS011;48746;55.578;37.902;2022-07-23T04:03:22;15.80;;;7.90;;
62679;SDS011;48746;55.578;37.902;2022-07-23T04:05:48;17.35;;;8.27;;
62679;SDS011;48746;55.578;37.902;2022-07-23T04:08:15;26.35;;;8.80;;
62679;SDS011;48746;55.578;37.902;2022-07-23T04:10:46;20.33;;;9.15;;
62679;SDS011;48746;55.578;37.902;2022-07-23T04:13:13;15.05;;;7.70;;
62679;SDS011;48746;55.578;37.902;2022-07-23T04:15:39;18.90;;;8.93;;
62679;SDS011;48746;55.578;37.902;2022-07-23T04:18:05;16.70;;;10.52;;
62679;SDS011;48746;55.578;37.902;2022-07-23T04:20:41;18.27;;;9.43;;
62679;SDS011;48746;55.578;37.902;2022-07-23T04:23:09;16.00;;;8.88;;
62679;SDS011;48746;55.578;37.902;2022-07-23T04:28:05;14.50;;;9.65;;
62679;SDS011;48746;55.578;37.902;2022-07-23T04:30:31;17.80;;;8.57;;
62679;SDS011;48746;55.578;37.902;2022-07-23T04:32:58;16.15;;;8.32;;
62679;SDS011;48746;55.578;37.902;2022-07-23T04:35:27;13.50;;;8.40;;
62679;SDS011;48746;55.578;37.902;2022-07-23T04:37:59;18.92;;;9.10;;
62679;SDS011;48746;55.578;37.902;2022-07-23T04:43:32;14.25;;;8.05;;
62679;SDS011;48746;55.578;37.902;2022-07-23T04:45:58;11.85;;;7.70;;
62679;SDS011;48746;55.578;37.902;2022-07-23T04:48:25;19.92;;;8.32;;
62679;SDS011;48746;55.578;37.902;2022-07-23T04:50:58;13.65;;;7.95;;
62679;SDS011;48746;55.578;37.902;2022-07-23T04:53:27;22.10;;;8.40;;
62679;SDS011;48746;55.578;37.902;2022-07-23T04:55:57;9.43;;;6.70;;
62679;SDS011;48746;55.578;37.902;2022-07-23T04:58:24;8.45;;;6.50;;
62679;SDS011;48746;55.578;37.902;2022-07-23T05:00:50;12.57;;;6.75;;
62679;SDS011;48746;55.578;37.902;2022-07-23T05:03:16;12.88;;;6.90;;
62679;SDS011;48746;55.578;37.902;2022-07-23T05:05:45;17.63;;;7.43;;
62679;SDS011;48746;55.578;37.902;2022-07-23T05:08:14;9.93;;;7.20;;
62679;SDS011;48746;55.578;37.902;2022-07-23T05:10:43;12.48;;;6.68;;
62679;SDS011;48746;55.578;37.902;2022-07-23T05:13:09;11.73;;;7.13;;
62679;SDS011;48746;55.578;37.902;2022-07-23T05:15:35;11.68;;;7.22;;
62679;SDS011;48746;55.578;37.902;2022-07-23T05:18:02;14.10;;;7.43;;
62679;SDS011;48746;55.578;37.902;2022-07-23T05:20:28;11.75;;;6.97;;
62679;SDS011;48746;55.578;37.902;2022-07-23T05:22:54;14.85;;;7.13;;
62679;SDS011;48746;55.578;37.902;2022-07-23T05:25:21;17.85;;;7.95;;
62679;SDS011;48746;55.578;37.902;2022-07-23T05:27:48;11.05;;;6.93;;
62679;SDS011;48746;55.578;37.902;2022-07-23T05:30:14;15.00;;;6.63;;
62679;SDS011;48746;55.578;37.902;2022-07-23T05:32:43;10.15;;;6.60;;
62679;SDS011;48746;55.578;37.902;2022-07-23T05:35:14;11.35;;;6.65;;
62679;SDS011;48746;55.578;37.902;2022-07-23T05:37:46;9.98;;;6.80;;
62679;SDS011;48746;55.578;37.902;2022-07-23T05:40:15;7.93;;;6.38;;
62679;SDS011;48746;55.578;37.902;2022-07-23T05:42:42;9.35;;;6.90;;
62679;SDS011;48746;55.578;37.902;2022-07-23T05:45:08;18.10;;;7.60;;
62679;SDS011;48746;55.578;37.902;2022-07-23T05:47:42;12.38;;;7.38;;
62679;SDS011;48746;55.578;37.902;2022-07-23T05:50:13;15.52;;;8.18;;
62679;SDS011;48746;55.578;37.902;2022-07-23T05:52:44;10.00;;;7.05;;
62679;SDS011;48746;55.578;37.902;2022-07-23T05:55:34;13.07;;;7.53;;
62679;SDS011;48746;55.578;37.902;2022-07-23T05:58:00;17.30;;;7.60;;
62679;SDS011;48746;55.578;37.902;2022-07-23T06:00:27;8.50;;;6.72;;
62679;SDS011;48746;55.578;37.902;2022-07-23T06:02:54;9.13;;;6.55;;
62679;SDS011;48746;55.578;37.902;2022-07-23T06:05:22;14.73;;;7.78;;
62679;SDS011;48746;55.578;37.902;2022-07-23T06:13:24;14.05;;;7.72;;
62679;SDS011;48746;55.578;37.902;2022-07-23T06:15:51;13.18;;;7.05;;
62679;SDS011;48746;55.578;37.902;2022-07-23T06:18:19;14.15;;;7.57;;
62679;SDS011;48746;55.578;37.902;2022-07-23T06:20:45;13.15;;;7.00;;
62679;SDS011;48746;55.578;37.902;2022-07-23T06:23:12;10.02;;;6.80;;
62679;SDS011;48746;55.578;37.902;2022-07-23T06:25:38;14.27;;;6.68;;
62679;SDS011;48746;55.578;37.902;2022-07-23T06:28:05;15.02;;;7.28;;
62679;SDS011;48746;55.578;37.902;2022-07-23T06:30:31;17.50;;;7.30;;
62679;SDS011;48746;55.578;37.902;2022-07-23T06:32:57;11.43;;;7.00;;
62679;SDS011;48746;55.578;37.902;2022-07-23T06:35:24;8.40;;;7.32;;
62679;SDS011;48746;55.578;37.902;2022-07-23T06:37:51;10.95;;;6.70;;
62679;SDS011;48746;55.578;37.902;2022-07-23T06:40:20;10.68;;;6.18;;
62679;SDS011;48746;55.578;37.902;2022-07-23T06:42:46;12.88;;;6.45;;
62679;SDS011;48746;55.578;37.902;2022-07-23T06:45:21;7.35;;;6.05;;
62679;SDS011;48746;55.578;37.902;2022-07-23T06:47:47;7.85;;;6.30;;
62679;SDS011;48746;55.578;37.902;2022-07-23T06:50:16;10.80;;;6.47;;
62679;SDS011;48746;55.578;37.902;2022-07-23T06:52:42;7.13;;;6.38;;
62679;SDS011;48746;55.578;37.902;2022-07-23T06:55:09;7.95;;;6.38;;
62679;SDS011;48746;55.578;37.902;2022-07-23T06:57:35;8.40;;;6.50;;
62679;SDS011;48746;55.578;37.902;2022-07-23T07:00:03;7.25;;;6.28;;
62679;SDS011;48746;55.578;37.902;2022-07-23T07:02:30;15.18;;;6.65;;
62679;SDS011;48746;55.578;37.902;2022-07-23T07:04:56;11.43;;;6.60;;
62679;SDS011;48746;55.578;37.902;2022-07-23T07:07:22;8.55;;;6.45;;
62679;SDS011;48746;55.578;37.902;2022-07-23T07:09:49;10.35;;;7.07;;
62679;SDS011;48746;55.578;37.902;2022-07-23T07:12:15;11.00;;;6.35;;
62679;SDS011;48746;55.578;37.902;2022-07-23T07:14:42;10.73;;;6.72;;
62679;SDS011;48746;55.578;37.902;2022-07-23T07:17:08;10.43;;;6.70;;
62679;SDS011;48746;55.578;37.902;2022-07-23T07:19:39;9.75;;;6.72;;
62679;SDS011;48746;55.578;37.902;2022-07-23T07:22:05;8.93;;;6.43;;
62679;SDS011;48746;55.578;37.902;2022-07-23T07:24:32;11.50;;;7.10;;
62679;SDS011;48746;55.578;37.902;2022-07-23T07:26:58;9.80;;;6.88;;
62679;SDS011;48746;55.578;37.902;2022-07-23T07:29:27;12.10;;;6.90;;
62679;SDS011;48746;55.578;37.902;2022-07-23T07:31:54;8.63;;;6.30;;
62679;SDS011;48746;55.578;37.902;2022-07-23T07:34:20;9.50;;;7.20;;
62679;SDS011;48746;55.578;37.902;2022-07-23T07:36:46;11.93;;;7.20;;
62679;SDS011;48746;55.578;37.902;2022-07-23T07:39:16;8.93;;;7.00;;
62679;SDS011;48746;55.578;37.902;2022-07-23T07:41:42;13.93;;;7.50;;
62679;SDS011;48746;55.578;37.902;2022-07-23T07:44:08;11.00;;;6.43;;
62679;SDS011;48746;55.578;37.902;2022-07-23T07:46:35;9.13;;;6.93;;
62679;SDS011;48746;55.578;37.902;2022-07-23T07:49:04;9.10;;;7.00;;
62679;SDS011;48746;55.578;37.902;2022-07-23T07:51:30;7.67;;;6.93;;
62679;SDS011;48746;55.578;37.902;2022-07-23T07:53:58;9.45;;;6.57;;
62679;SDS011;48746;55.578;37.902;2022-07-23T07:56:24;14.38;;;7.75;;
62679;SDS011;48746;55.578;37.902;2022-07-23T07:58:53;9.20;;;7.57;;
62679;SDS011;48746;55.578;37.902;2022-07-23T08:01:20;11.17;;;8.30;;
62679;SDS011;48746;55.578;37.902;2022-07-23T08:03:46;10.27;;;7.20;;
62679;SDS011;48746;55.578;37.902;2022-07-23T08:06:18;9.00;;;7.53;;
62679;SDS011;48746;55.578;37.902;2022-07-23T08:08:45;8.77;;;7.57;;
62679;SDS011;48746;55.578;37.902;2022-07-23T08:11:11;11.77;;;7.50;;
62679;SDS011;48746;55.578;37.902;2022-07-23T08:13:38;11.18;;;7.10;;
62679;SDS011;48746;55.578;37.902;2022-07-23T08:16:04;13.38;;;8.93;;
62679;SDS011;48746;55.578;37.902;2022-07-23T08:18:31;11.30;;;7.28;;
62679;SDS011;48746;55.578;37.902;2022-07-23T08:20:57;8.88;;;7.78;;
62679;SDS011;48746;55.578;37.902;2022-07-23T08:23:24;9.38;;;7.25;;
62679;SDS011;48746;55.578;37.902;2022-07-23T08:25:50;11.48;;;7.70;;
62679;SDS011;48746;55.578;37.902;2022-07-23T08:28:17;17.95;;;8.45;;
62679;SDS011;48746;55.578;37.902;2022-07-23T08:30:43;9.93;;;8.10;;
62679;SDS011;48746;55.578;37.902;2022-07-23T08:33:11;10.45;;;7.78;;
62679;SDS011;48746;55.578;37.902;2022-07-23T08:35:43;11.65;;;8.10;;
62679;SDS011;48746;55.578;37.902;2022-07-23T08:38:13;15.43;;;8.93;;
62679;SDS011;48746;55.578;37.902;2022-07-23T08:40:43;13.30;;;8.95;;
62679;SDS011;48746;55.578;37.902;2022-07-23T08:43:12;9.95;;;8.02;;
62679;SDS011;48746;55.578;37.902;2022-07-23T08:45:42;10.65;;;8.40;;
62679;SDS011;48746;55.578;37.902;2022-07-23T08:48:14;13.10;;;8.73;;
62679;SDS011;48746;55.578;37.902;2022-07-23T08:50:45;12.13;;;8.25;;
62679;SDS011;48746;55.578;37.902;2022-07-23T08:53:13;10.45;;;8.18;;
62679;SDS011;48746;55.578;37.902;2022-07-23T08:55:40;9.88;;;8.15;;
62679;SDS011;48746;55.578;37.902;2022-07-23T08:58:09;11.75;;;8.25;;
62679;SDS011;48746;55.578;37.902;2022-07-23T09:00:36;10.00;;;8.65;;
62679;SDS011;48746;55.578;37.902;2022-07-23T09:03:02;9.18;;;8.27;;
62679;SDS011;48746;55.578;37.902;2022-07-23T09:05:28;9.55;;;8.05;;
62679;SDS011;48746;55.578;37.902;2022-07-23T09:10:43;11.00;;;8.48;;
62679;SDS011;48746;55.578;37.902;2022-07-23T09:15:57;12.77;;;8.70;;
62679;SDS011;48746;55.578;37.902;2022-07-23T09:26:25;12.13;;;8.68;;
62679;SDS011;48746;55.578;37.902;2022-07-23T09:29:35;9.48;;;8.48;;
62679;SDS011;48746;55.578;37.902;2022-07-23T09:36:52;11.60;;;9.23;;
62679;SDS011;48746;55.578;37.902;2022-07-23T09:39:39;16.83;;;9.67;;
62679;SDS011;48746;55.578;37.902;2022-07-23T09:42:19;12.02;;;9.02;;
62679;SDS011;48746;55.578;37.902;2022-07-23T09:44:55;14.00;;;9.35;;
62679;SDS011;48746;55.578;37.902;2022-07-23T09:47:23;21.40;;;10.07;;
62679;SDS011;48746;55.578;37.902;2022-07-23T09:50:00;13.38;;;8.52;;
62679;SDS011;48746;55.578;37.902;2022-07-23T09:52:32;9.95;;;8.77;;
62679;SDS011;48746;55.578;37.902;2022-07-23T09:55:00;13.70;;;8.80;;
62679;SDS011;48746;55.578;37.902;2022-07-23T09:57:28;10.73;;;8.35;;
62679;SDS011;48746;55.578;37.902;2022-07-23T09:59:58;12.50;;;8.63;;
62679;SDS011;48746;55.578;37.902;2022-07-23T10:02:31;13.75;;;8.88;;
62679;SDS011;48746;55.578;37.902;2022-07-23T10:05:21;18.95;;;9.90;;
62679;SDS011;48746;55.578;37.902;2022-07-23T10:08:08;14.95;;;9.68;;
62679;SDS011;48746;55.578;37.902;2022-07-23T10:10:55;14.93;;;9.50;;
62679;SDS011;48746;55.578;37.902;2022-07-23T10:13:27;14.23;;;8.88;;
62679;SDS011;48746;55.578;37.902;2022-07-23T10:15:58;10.18;;;8.63;;
62679;SDS011;48746;55.578;37.902;2022-07-23T10:18:24;13.85;;;9.30;;
62679;SDS011;48746;55.578;37.902;2022-07-23T10:20:51;14.93;;;8.80;;
62679;SDS011;48746;55.578;37.902;2022-07-23T10:26:09;10.57;;;8.32;;
62679;SDS011;48746;55.578;37.902;2022-07-23T10:34:20;11.93;;;8.93;;
62679;SDS011;48746;55.578;37.902;2022-07-23T10:36:52;11.45;;;9.48;;
62679;SDS011;48746;55.578;37.902;2022-07-23T10:42:29;12.60;;;8.82;;
62679;SDS011;48746;55.578;37.902;2022-07-23T10:44:59;11.27;;;8.80;;
62679;SDS011;48746;55.578;37.902;2022-07-23T10:47:27;10.57;;;8.63;;
62679;SDS011;48746;55.578;37.902;2022-07-23T10:50:26;12.23;;;8.57;;
62679;SDS011;48746;55.578;37.902;2022-07-23T10:58:00;12.60;;;8.70;;
62679;SDS011;48746;55.578;37.902;2022-07-23T11:03:34;13.90;;;9.07;;
62679;SDS011;48746;55.578;37.902;2022-07-23T11:06:05;15.10;;;8.75;;
62679;SDS011;48746;55.578;37.902;2022-07-23T11:08:31;13.32;;;8.52;;
62679;SDS011;48746;55.578;37.902;2022-07-23T11:13:28;15.73;;;11.47;;
62679;SDS011;48746;55.578;37.902;2022-07-23T11:21:51;12.13;;;9.30;;
62679;SDS011;48746;55.578;37.902;2022-07-23T11:29:40;15.50;;;9.07;;
62679;SDS011;48746;55.578;37.902;2022-07-23T11:32:07;13.30;;;9.03;;
62679;SDS011;48746;55.578;37.902;2022-07-23T11:34:44;12.18;;;8.60;;
62679;SDS011;48746;55.578;37.902;2022-07-23T11:39:56;12.18;;;8.95;;
62679;SDS011;48746;55.578;37.902;2022-07-23T11:42:23;14.00;;;8.82;;
62679;SDS011;48746;55.578;37.902;2022-07-23T11:44:49;11.15;;;8.65;;
62679;SDS011;48746;55.578;37.902;2022-07-23T11:47:20;12.55;;;9.38;;
62679;SDS011;48746;55.578;37.902;2022-07-23T11:49:58;12.90;;;9.63;;
62679;SDS011;48746;55.578;37.902;2022-07-23T11:52:26;17.80;;;9.80;;
62679;SDS011;48746;55.578;37.902;2022-07-23T11:54:55;11.43;;;8.65;;
62679;SDS011;48746;55.578;37.902;2022-07-23T11:57:30;12.32;;;10.13;;
62679;SDS011;48746;55.578;37.902;2022-07-23T12:02:38;23.13;;;9.23;;
62679;SDS011;48746;55.578;37.902;2022-07-23T12:05:11;13.75;;;10.27;;
62679;SDS011;48746;55.578;37.902;2022-07-23T12:07:41;13.88;;;9.05;;
62679;SDS011;48746;55.578;37.902;2022-07-23T12:15:15;13.88;;;9.00;;
62679;SDS011;48746;55.578;37.902;2022-07-23T12:17:44;13.10;;;8.88;;
62679;SDS011;48746;55.578;37.902;2022-07-23T12:20:14;11.43;;;10.00;;
62679;SDS011;48746;55.578;37.902;2022-07-23T12:22:46;9.95;;;8.85;;
62679;SDS011;48746;55.578;37.902;2022-07-23T12:25:17;12.13;;;9.38;;
62679;SDS011;48746;55.578;37.902;2022-07-23T12:28:10;9.55;;;8.57;;
62679;SDS011;48746;55.578;37.902;2022-07-23T12:30:40;11.02;;;8.63;;
62679;SDS011;48746;55.578;37.902;2022-07-23T12:33:09;10.95;;;8.63;;
62679;SDS011;48746;55.578;37.902;2022-07-23T12:35:37;12.70;;;9.20;;
62679;SDS011;48746;55.578;37.902;2022-07-23T12:38:07;12.93;;;8.73;;
62679;SDS011;48746;55.578;37.902;2022-07-23T12:43:04;12.43;;;9.18;;
62679;SDS011;48746;55.578;37.902;2022-07-23T12:45:51;11.02;;;9.13;;
62679;SDS011;48746;55.578;37.902;2022-07-23T12:51:34;13.07;;;9.15;;
62679;SDS011;48746;55.578;37.902;2022-07-23T12:54:06;10.55;;;8.75;;
62679;SDS011;48746;55.578;37.902;2022-07-23T12:56:33;10.35;;;8.70;;
62679;SDS011;48746;55.578;37.902;2022-07-23T13:02:08;12.25;;;9.60;;
62679;SDS011;48746;55.578;37.902;2022-07-23T13:04:35;10.88;;;8.55;;
62679;SDS011;48746;55.578;37.902;2022-07-23T13:07:01;11.30;;;9.13;;
62679;SDS011;48746;55.578;37.902;2022-07-23T13:12:37;10.10;;;8.95;;
62679;SDS011;48746;55.578;37.902;2022-07-23T13:15:04;11.85;;;9.65;;
62679;SDS011;48746;55.578;37.902;2022-07-23T13:17:31;15.27;;;9.02;;
62679;SDS011;48746;55.578;37.902;2022-07-23T13:19:58;18.58;;;9.75;;
62679;SDS011;48746;55.578;37.902;2022-07-23T13:22:24;15.38;;;9.25;;
62679;SDS011;48746;55.578;37.902;2022-07-23T13:24:51;14.35;;;8.55;;
62679;SDS011;48746;55.578;37.902;2022-07-23T13:27:17;12.18;;;9.23;;
62679;SDS011;48746;55.578;37.902;2022-07-23T13:32:50;10.55;;;9.45;;
62679;SDS011;48746;55.578;37.902;2022-07-23T13:35:16;9.43;;;8.20;;
62679;SDS011;48746;55.578;37.902;2022-07-23T13:37:43;9.82;;;8.02;;
62679;SDS011;48746;55.578;37.902;2022-07-23T13:40:12;11.10;;;8.90;;
62679;SDS011;48746;55.578;37.902;2022-07-23T13:42:38;13.43;;;8.50;;
62679;SDS011;48746;55.578;37.902;2022-07-23T13:45:04;12.88;;;8.02;;
62679;SDS011;48746;55.578;37.902;2022-07-23T13:47:31;19.58;;;9.52;;
62679;SDS011;48746;55.578;37.902;2022-07-23T13:49:58;11.32;;;8.52;;
62679;SDS011;48746;55.578;37.902;2022-07-23T13:52:24;14.40;;;9.27;;
62679;SDS011;48746;55.578;37.902;2022-07-23T13:54:51;10.57;;;8.57;;
62679;SDS011;48746;55.578;37.902;2022-07-23T13:57:16;10.50;;;8.18;;
62679;SDS011;48746;55.578;37.902;2022-07-23T13:59:45;11.80;;;8.82;;
62679;SDS011;48746;55.578;37.902;2022-07-23T14:02:12;12.02;;;9.02;;
62679;SDS011;48746;55.578;37.902;2022-07-23T14:04:41;11.77;;;9.20;;
62679;SDS011;48746;55.578;37.902;2022-07-23T14:07:07;14.38;;;8.82;;
62679;SDS011;48746;55.578;37.902;2022-07-23T14:09:37;11.73;;;8.45;;
62679;SDS011;48746;55.578;37.902;2022-07-23T14:12:04;18.15;;;9.35;;
62679;SDS011;48746;55.578;37.902;2022-07-23T14:14:31;11.68;;;8.43;;
62679;SDS011;48746;55.578;37.902;2022-07-23T14:16:57;12.68;;;8.63;;
62679;SDS011;48746;55.578;37.902;2022-07-23T14:19:27;11.68;;;8.23;;
62679;SDS011;48746;55.578;37.902;2022-07-23T14:21:53;14.15;;;9.45;;
62679;SDS011;48746;55.578;37.902;2022-07-23T14:24:20;13.68;;;8.68;;
62679;SDS011;48746;55.578;37.902;2022-07-23T14:26:46;10.40;;;8.10;;
62679;SDS011;48746;55.578;37.902;2022-07-23T14:29:15;15.25;;;8.45;;
62679;SDS011;48746;55.578;37.902;2022-07-23T14:31:41;13.73;;;9.40;;
62679;SDS011;48746;55.578;37.902;2022-07-23T14:34:08;9.70;;;8.38;;
62679;SDS011;48746;55.578;37.902;2022-07-23T14:36:34;12.75;;;9.60;;
62679;SDS011;48746;55.578;37.902;2022-07-23T14:39:04;14.32;;;9.07;;
62679;SDS011;48746;55.578;37.902;2022-07-23T14:41:30;12.93;;;8.38;;
62679;SDS011;48746;55.578;37.902;2022-07-23T14:43:57;12.98;;;9.18;;
62679;SDS011;48746;55.578;37.902;2022-07-23T14:46:23;9.60;;;8.20;;
62679;SDS011;48746;55.578;37.902;2022-07-23T14:48:54;10.95;;;9.15;;
62679;SDS011;48746;55.578;37.902;2022-07-23T14:51:20;13.35;;;8.80;;
62679;SDS011;48746;55.578;37.902;2022-07-23T14:53:47;11.95;;;8.98;;
62679;SDS011;48746;55.578;37.902;2022-07-23T14:56:13;13.52;;;8.95;;
62679;SDS011;48746;55.578;37.902;2022-07-23T14:58:43;9.68;;;8.55;;
62679;SDS011;48746;55.578;37.902;2022-07-23T15:01:09;13.50;;;8.80;;
62679;SDS011;48746;55.578;37.902;2022-07-23T15:03:35;9.52;;;8.52;;
62679;SDS011;48746;55.578;37.902;2022-07-23T15:06:01;9.75;;;8.65;;
62679;SDS011;48746;55.578;37.902;2022-07-23T15:08:27;11.10;;;8.25;;
62679;SDS011;48746;55.578;37.902;2022-07-23T15:10:54;12.57;;;9.13;;
62679;SDS011;48746;55.578;37.902;2022-07-23T15:13:20;9.60;;;8.32;;
62679;SDS011;48746;55.578;37.902;2022-07-23T15:15:46;10.93;;;9.20;;
62679;SDS011;48746;55.578;37.902;2022-07-23T15:18:13;15.82;;;9.63;;
62679;SDS011;48746;55.578;37.902;2022-07-23T15:20:39;11.52;;;9.63;;
62679;SDS011;48746;55.578;37.902;2022-07-23T15:23:06;15.43;;;9.32;;
62679;SDS011;48746;55.578;37.902;2022-07-23T15:25:33;13.95;;;9.50;;
62679;SDS011;48746;55.578;37.902;2022-07-23T15:28:00;13.40;;;9.05;;
62679;SDS011;48746;55.578;37.902;2022-07-23T15:30:26;14.25;;;9.85;;
62679;SDS011;48746;55.578;37.902;2022-07-23T15:32:53;12.85;;;8.55;;
62679;SDS011;48746;55.578;37.902;2022-07-23T15:35:19;11.55;;;9.15;;
62679;SDS011;48746;55.578;37.902;2022-07-23T15:37:46;12.43;;;9.38;;
62679;SDS011;48746;55.578;37.902;2022-07-23T15:40:13;15.85;;;8.95;;
62679;SDS011;48746;55.578;37.902;2022-07-23T15:42:39;12.45;;;9.27;;
62679;SDS011;48746;55.578;37.902;2022-07-23T15:45:06;15.30;;;9.85;;
62679;SDS011;48746;55.578;37.902;2022-07-23T15:47:32;11.52;;;9.57;;
62679;SDS011;48746;55.578;37.902;2022-07-23T15:49:59;11.95;;;8.30;;
62679;SDS011;48746;55.578;37.902;2022-07-23T15:52:25;9.95;;;8.80;;
62679;SDS011;48746;55.578;37.902;2022-07-23T15:54:51;14.00;;;9.18;;
62679;SDS011;48746;55.578;37.902;2022-07-23T15:57:17;12.65;;;9.18;;
62679;SDS011;48746;55.578;37.902;2022-07-23T16:02:51;13.45;;;9.10;;
62679;SDS011;48746;55.578;37.902;2022-07-23T16:05:17;13.48;;;9.10;;
62679;SDS011;48746;55.578;37.902;2022-07-23T16:07:43;9.43;;;8.27;;